createdAt,value
2017-08-13T00:00:01.506Z,0.00
2017-08-13T00:01:01.011Z,0.00
2017-08-13T00:01:56.061Z,0.00
2017-08-13T00:02:51.109Z,0.00
2017-08-13T00:03:51.701Z,0.00
2017-08-13T00:04:46.353Z,0.00
2017-08-13T00:05:41.297Z,0.00
2017-08-13T00:06:42.858Z,0.00
2017-08-13T00:07:42.281Z,0.00
2017-08-13T00:08:42.294Z,0.00
2017-08-13T00:09:38.037Z,0.00
2017-08-13T00:10:31.500Z,0.00
2017-08-13T00:11:31.520Z,0.00
2017-08-13T00:12:26.579Z,0.00
2017-08-13T00:13:26.471Z,0.00
2017-08-13T00:14:20.722Z,0.00
2017-08-13T00:15:20.591Z,0.00
2017-08-13T00:16:15.732Z,0.00
2017-08-13T00:17:10.854Z,0.00
2017-08-13T00:18:10.683Z,0.00
2017-08-13T00:19:06.220Z,0.00
2017-08-13T00:20:01.022Z,0.00
2017-08-13T00:21:06.919Z,0.00
2017-08-13T00:22:00.735Z,0.00
2017-08-13T00:23:01.309Z,0.00
2017-08-13T00:23:56.418Z,0.00
2017-08-13T00:24:55.939Z,0.00
2017-08-13T00:25:55.936Z,0.00
2017-08-13T00:27:01.982Z,0.00
2017-08-13T00:27:56.961Z,0.00
2017-08-13T00:28:57.652Z,0.00
2017-08-13T00:29:52.334Z,0.00
2017-08-13T00:30:47.018Z,0.00
2017-08-13T00:31:48.248Z,0.00
2017-08-13T00:32:48.116Z,0.00
2017-08-13T00:33:48.203Z,0.00
2017-08-13T00:34:43.271Z,0.00
2017-08-13T00:35:37.571Z,0.00
2017-08-13T00:36:38.338Z,0.00
2017-08-13T00:37:38.336Z,0.00
2017-08-13T00:38:38.381Z,0.00
2017-08-13T00:39:33.458Z,0.00
2017-08-13T00:40:27.690Z,0.00
2017-08-13T00:41:27.559Z,0.00
2017-08-13T00:42:23.170Z,0.00
2017-08-13T00:43:18.125Z,0.00
2017-08-13T00:44:19.211Z,0.00
2017-08-13T00:45:18.544Z,0.00
2017-08-13T00:46:18.723Z,0.00
2017-08-13T00:47:13.720Z,0.00
2017-08-13T00:48:07.694Z,0.00
2017-08-13T00:49:07.820Z,0.00
2017-08-13T00:50:02.868Z,0.00
2017-08-13T00:51:08.743Z,0.00
2017-08-13T00:52:03.862Z,0.00
2017-08-13T00:52:57.908Z,0.00
2017-08-13T00:53:59.409Z,0.00
2017-08-13T00:54:53.992Z,0.00
2017-08-13T00:55:47.932Z,0.00
2017-08-13T00:56:47.983Z,0.00
2017-08-13T00:57:43.129Z,0.00
2017-08-13T00:58:43.084Z,0.00
2017-08-13T00:59:37.402Z,0.00
2017-08-13T01:00:37.470Z,0.00
2017-08-13T01:01:32.258Z,0.00
2017-08-13T01:02:27.161Z,0.00
2017-08-13T01:03:27.280Z,0.00
2017-08-13T01:04:22.754Z,0.00
2017-08-13T01:05:17.404Z,0.00
2017-08-13T01:06:17.441Z,0.00
2017-08-13T01:07:12.879Z,0.00
2017-08-13T01:08:07.808Z,0.00
2017-08-13T01:09:08.967Z,0.00
2017-08-13T01:10:09.911Z,0.00
2017-08-13T01:11:04.941Z,0.00
2017-08-13T01:11:58.996Z,0.00
2017-08-13T01:12:59.187Z,0.00
2017-08-13T01:13:59.040Z,0.00
2017-08-13T01:14:54.428Z,0.00
2017-08-13T01:15:47.825Z,0.00
2017-08-13T01:16:47.780Z,0.00
2017-08-13T01:17:42.761Z,0.00
2017-08-13T01:18:37.867Z,0.00
2017-08-13T01:19:39.455Z,0.00
2017-08-13T01:20:39.592Z,0.00
2017-08-13T01:21:39.331Z,0.00
2017-08-13T01:22:34.422Z,0.00
2017-08-13T01:23:28.321Z,0.00
2017-08-13T01:24:28.551Z,0.00
2017-08-13T01:25:23.617Z,0.00
2017-08-13T01:26:23.650Z,0.00
2017-08-13T01:27:17.067Z,0.00
2017-08-13T01:28:17.110Z,0.00
2017-08-13T01:29:12.261Z,0.00
2017-08-13T01:30:07.256Z,0.00
2017-08-13T01:31:07.883Z,0.00
2017-08-13T01:32:02.318Z,0.00
2017-08-13T01:32:57.392Z,0.00
2017-08-13T01:34:03.939Z,0.00
2017-08-13T01:34:57.423Z,0.00
2017-08-13T01:35:57.380Z,0.00
2017-08-13T01:36:52.580Z,0.00
2017-08-13T01:37:58.597Z,0.00
2017-08-13T01:38:58.836Z,0.00
2017-08-13T01:39:59.557Z,0.00
2017-08-13T01:40:53.605Z,0.00
2017-08-13T01:41:53.546Z,0.00
2017-08-13T01:42:48.644Z,0.00
2017-08-13T01:43:43.661Z,0.00
2017-08-13T01:44:44.763Z,0.00
2017-08-13T01:45:44.721Z,0.00
2017-08-13T01:46:44.742Z,0.00
2017-08-13T01:47:39.830Z,0.00
2017-08-13T01:48:33.833Z,0.00
2017-08-13T01:49:33.906Z,0.00
2017-08-13T01:50:29.595Z,0.00
2017-08-13T01:51:28.958Z,0.00
2017-08-13T01:52:23.075Z,0.00
2017-08-13T01:53:23.099Z,0.00
2017-08-13T01:54:18.143Z,0.00
2017-08-13T01:55:13.392Z,0.00
2017-08-13T01:56:13.167Z,0.00
2017-08-13T01:57:08.207Z,0.00
2017-08-13T01:58:03.235Z,0.00
2017-08-13T01:59:04.256Z,0.00
2017-08-13T02:00:04.244Z,0.00
2017-08-13T02:01:04.327Z,0.00
2017-08-13T02:01:59.321Z,0.00
2017-08-13T02:02:53.342Z,0.00
2017-08-13T02:03:53.687Z,0.00
2017-08-13T02:04:48.421Z,0.00
2017-08-13T02:05:48.425Z,0.00
2017-08-13T02:06:42.964Z,0.00
2017-08-13T02:07:36.988Z,0.00
2017-08-13T02:08:25.567Z,0.00
2017-08-13T02:09:14.559Z,0.00
2017-08-13T02:10:03.641Z,0.00
2017-08-13T02:10:51.763Z,0.00
2017-08-13T02:11:39.696Z,0.00
2017-08-13T02:12:27.840Z,0.00
2017-08-13T02:13:16.775Z,0.00
2017-08-13T02:14:04.959Z,0.00
2017-08-13T02:14:53.282Z,0.00
2017-08-13T02:15:42.659Z,0.00
2017-08-13T02:16:35.934Z,0.00
2017-08-13T02:17:24.159Z,0.00
2017-08-13T02:18:12.152Z,0.00
2017-08-13T02:19:01.828Z,0.00
2017-08-13T02:19:49.244Z,0.00
2017-08-13T02:20:37.189Z,0.00
2017-08-13T02:21:25.199Z,0.00
2017-08-13T02:22:13.269Z,0.00
2017-08-13T02:23:02.630Z,0.00
2017-08-13T02:23:50.526Z,0.00
2017-08-13T02:24:40.072Z,0.00
2017-08-13T02:25:28.454Z,0.00
2017-08-13T02:26:17.681Z,0.00
2017-08-13T02:27:05.562Z,0.00
2017-08-13T02:27:54.600Z,0.00
2017-08-13T02:28:42.709Z,0.00
2017-08-13T02:29:30.961Z,0.00
2017-08-13T02:30:20.365Z,0.00
2017-08-13T02:31:07.893Z,0.00
2017-08-13T02:31:56.510Z,0.00
2017-08-13T02:32:45.073Z,0.00
2017-08-13T02:33:33.889Z,0.00
2017-08-13T02:34:23.514Z,0.00
2017-08-13T02:35:11.465Z,0.00
2017-08-13T02:36:06.430Z,0.00
2017-08-13T02:36:55.665Z,0.00
2017-08-13T02:37:43.160Z,0.00
2017-08-13T02:38:32.177Z,0.00
2017-08-13T02:39:20.798Z,0.00
2017-08-13T02:40:08.189Z,0.00
2017-08-13T02:40:57.218Z,0.00
2017-08-13T02:41:45.433Z,0.00
2017-08-13T02:42:33.433Z,0.00
2017-08-13T02:43:21.825Z,0.00
2017-08-13T02:44:10.525Z,0.00
2017-08-13T02:44:58.954Z,0.00
2017-08-13T02:45:53.171Z,0.00
2017-08-13T02:46:41.653Z,0.00
2017-08-13T02:47:29.685Z,0.00
2017-08-13T02:48:17.675Z,0.00
2017-08-13T02:49:06.219Z,0.00
2017-08-13T02:49:54.791Z,0.00
2017-08-13T02:50:42.817Z,0.00
2017-08-13T02:51:30.792Z,0.00
2017-08-13T02:52:18.951Z,0.00
2017-08-13T02:53:07.002Z,0.00
2017-08-13T02:54:02.617Z,0.00
2017-08-13T02:54:50.186Z,0.00
2017-08-13T02:55:38.026Z,0.00
2017-08-13T02:56:26.784Z,0.00
2017-08-13T02:57:26.420Z,0.00
2017-08-13T02:58:14.323Z,0.00
2017-08-13T02:59:02.801Z,0.00
2017-08-13T02:59:50.700Z,0.00
2017-08-13T03:00:38.398Z,0.00
2017-08-13T03:01:27.291Z,0.00
2017-08-13T03:02:15.365Z,0.00
2017-08-13T03:03:09.424Z,0.00
2017-08-13T03:03:57.351Z,0.00
2017-08-13T03:04:46.855Z,0.00
2017-08-13T03:05:35.550Z,0.00
2017-08-13T03:06:23.517Z,0.00
2017-08-13T03:07:23.543Z,0.00
2017-08-13T03:08:23.707Z,0.00
2017-08-13T03:09:30.075Z,0.00
2017-08-13T03:10:29.743Z,0.00
2017-08-13T03:11:23.769Z,0.00
2017-08-13T03:12:24.772Z,0.00
2017-08-13T03:13:24.899Z,0.00
2017-08-13T03:14:20.330Z,0.00
2017-08-13T03:15:19.835Z,0.00
2017-08-13T03:16:13.962Z,0.00
2017-08-13T03:17:14.029Z,0.00
2017-08-13T03:18:08.937Z,0.00
2017-08-13T03:19:03.944Z,0.00
2017-08-13T03:20:04.119Z,0.00
2017-08-13T03:20:59.141Z,0.00
2017-08-13T03:21:54.181Z,0.00
2017-08-13T03:22:55.141Z,0.00
2017-08-13T03:23:55.627Z,0.00
2017-08-13T03:24:55.149Z,0.00
2017-08-13T03:25:50.383Z,0.00
2017-08-13T03:26:50.367Z,0.00
2017-08-13T03:27:50.316Z,0.00
2017-08-13T03:28:44.416Z,0.00
2017-08-13T03:29:44.734Z,0.00
2017-08-13T03:30:39.562Z,0.00
2017-08-13T03:31:39.550Z,0.00
2017-08-13T03:32:33.740Z,0.00
2017-08-13T03:33:33.477Z,0.00
2017-08-13T03:34:28.865Z,0.00
2017-08-13T03:35:28.582Z,0.00
2017-08-13T03:36:28.704Z,0.00
2017-08-13T03:37:34.686Z,0.00
2017-08-13T03:38:30.096Z,0.00
2017-08-13T03:39:24.190Z,0.00
2017-08-13T03:40:23.800Z,0.00
2017-08-13T03:41:19.087Z,0.00
2017-08-13T03:42:19.459Z,0.00
2017-08-13T03:43:12.908Z,0.00
2017-08-13T03:44:12.905Z,0.00
2017-08-13T03:45:07.892Z,0.00
2017-08-13T03:46:03.122Z,0.00
2017-08-13T03:47:04.010Z,0.00
2017-08-13T03:48:04.182Z,0.00
2017-08-13T03:49:04.146Z,0.00
2017-08-13T03:49:59.075Z,0.00
2017-08-13T03:50:53.433Z,0.00
2017-08-13T03:51:53.191Z,0.00
2017-08-13T03:52:48.241Z,0.00
2017-08-13T03:53:43.969Z,0.00
2017-08-13T03:54:43.149Z,0.00
2017-08-13T03:55:38.275Z,0.00
2017-08-13T03:56:33.613Z,0.00
2017-08-13T03:57:33.509Z,0.00
2017-08-13T03:58:28.327Z,0.00
2017-08-13T03:59:23.378Z,0.00
2017-08-13T04:00:17.472Z,0.00
2017-08-13T04:01:18.495Z,0.00
2017-08-13T04:02:19.099Z,0.00
2017-08-13T04:03:13.527Z,0.00
2017-08-13T04:04:13.677Z,0.00
2017-08-13T04:05:13.622Z,0.00
2017-08-13T04:06:13.605Z,0.00
2017-08-13T04:07:08.140Z,0.00
2017-08-13T04:08:08.912Z,0.00
2017-08-13T04:09:09.976Z,0.00
2017-08-13T04:10:09.822Z,0.01
2017-08-13T04:11:04.937Z,0.01
2017-08-13T04:12:04.943Z,0.01
2017-08-13T04:13:05.936Z,0.01
2017-08-13T04:14:00.880Z,0.01
2017-08-13T04:15:00.924Z,0.01
2017-08-13T04:16:01.035Z,0.01
2017-08-13T04:16:56.228Z,0.01
2017-08-13T04:17:50.978Z,0.01
2017-08-13T04:18:51.138Z,0.01
2017-08-13T04:19:46.139Z,0.01
2017-08-13T04:20:41.176Z,0.01
2017-08-13T04:21:35.157Z,0.01
2017-08-13T04:22:35.310Z,0.01
2017-08-13T04:23:30.314Z,0.02
2017-08-13T04:24:30.505Z,0.02
2017-08-13T04:25:31.997Z,0.02
2017-08-13T04:26:25.292Z,0.02
2017-08-13T04:27:25.614Z,0.02
2017-08-13T04:28:20.488Z,0.02
2017-08-13T04:29:15.878Z,0.02
2017-08-13T04:30:09.581Z,0.02
2017-08-13T04:31:10.550Z,0.02
2017-08-13T04:32:11.539Z,0.02
2017-08-13T04:33:06.636Z,0.02
2017-08-13T04:34:06.766Z,0.02
2017-08-13T04:35:12.695Z,0.02
2017-08-13T04:36:07.760Z,0.03
2017-08-13T04:37:07.790Z,0.03
2017-08-13T04:38:07.731Z,0.03
2017-08-13T04:39:02.678Z,0.03
2017-08-13T04:40:03.336Z,0.03
2017-08-13T04:41:02.897Z,0.03
2017-08-13T04:41:58.310Z,0.03
2017-08-13T04:42:53.027Z,0.03
2017-08-13T04:43:53.993Z,0.03
2017-08-13T04:44:54.239Z,0.04
2017-08-13T04:45:49.412Z,0.04
2017-08-13T04:46:44.331Z,0.04
2017-08-13T04:47:44.138Z,0.04
2017-08-13T04:48:39.664Z,0.04
2017-08-13T04:49:34.634Z,0.04
2017-08-13T04:50:28.210Z,0.04
2017-08-13T04:51:29.628Z,0.04
2017-08-13T04:52:24.419Z,0.05
2017-08-13T04:53:24.801Z,0.05
2017-08-13T04:54:24.657Z,0.05
2017-08-13T04:55:24.449Z,0.05
2017-08-13T04:56:24.941Z,0.05
2017-08-13T04:57:24.705Z,0.05
2017-08-13T04:58:24.809Z,0.05
2017-08-13T04:59:24.613Z,0.05
2017-08-13T05:00:24.878Z,0.05
2017-08-13T05:01:24.821Z,0.05
2017-08-13T05:02:30.665Z,0.05
2017-08-13T05:03:25.609Z,0.06
2017-08-13T05:04:19.949Z,0.06
2017-08-13T05:05:20.109Z,0.06
2017-08-13T05:06:15.396Z,0.06
2017-08-13T05:07:10.050Z,0.06
2017-08-13T05:08:10.333Z,0.07
2017-08-13T05:09:05.360Z,0.07
2017-08-13T05:10:00.292Z,0.07
2017-08-13T05:10:53.909Z,0.09
2017-08-13T05:11:55.163Z,0.11
2017-08-13T05:12:50.463Z,0.11
2017-08-13T05:13:50.305Z,0.11
2017-08-13T05:14:56.302Z,0.15
2017-08-13T05:15:56.182Z,0.17
2017-08-13T05:16:57.242Z,0.17
2017-08-13T05:17:58.283Z,0.17
2017-08-13T05:18:59.777Z,0.18
2017-08-13T05:19:53.786Z,0.18
2017-08-13T05:20:54.877Z,0.19
2017-08-13T05:21:54.879Z,0.21
2017-08-13T05:22:49.914Z,0.22
2017-08-13T05:23:44.903Z,0.22
2017-08-13T05:24:45.047Z,0.24
2017-08-13T05:25:40.060Z,0.25
2017-08-13T05:26:35.062Z,0.27
2017-08-13T05:27:28.850Z,0.27
2017-08-13T05:28:30.097Z,0.25
2017-08-13T05:29:31.078Z,0.23
2017-08-13T05:30:31.428Z,0.22
2017-08-13T05:31:31.095Z,0.22
2017-08-13T05:32:31.271Z,0.23
2017-08-13T05:33:31.430Z,0.23
2017-08-13T05:34:31.374Z,0.23
2017-08-13T05:35:31.354Z,0.22
2017-08-13T05:36:31.470Z,0.25
2017-08-13T05:37:31.561Z,0.26
2017-08-13T05:38:31.653Z,0.26
2017-08-13T05:39:31.695Z,0.25
2017-08-13T05:40:31.650Z,0.25
2017-08-13T05:41:31.693Z,0.26
2017-08-13T05:42:32.741Z,0.26
2017-08-13T05:43:27.675Z,0.26
2017-08-13T05:44:21.787Z,0.25
2017-08-13T05:45:21.911Z,0.25
2017-08-13T05:46:16.911Z,0.24
2017-08-13T05:47:11.889Z,0.24
2017-08-13T05:48:01.008Z,0.26
2017-08-13T05:48:56.006Z,0.27
2017-08-13T05:49:50.076Z,0.28
2017-08-13T05:50:44.163Z,0.28
2017-08-13T05:51:39.117Z,0.29
2017-08-13T05:52:33.160Z,0.29
2017-08-13T05:53:21.245Z,0.29
2017-08-13T05:54:15.355Z,0.29
2017-08-13T05:55:09.264Z,0.30
2017-08-13T05:56:03.300Z,0.30
2017-08-13T05:56:58.382Z,0.30
2017-08-13T05:57:46.476Z,0.30
2017-08-13T05:58:35.478Z,0.31
2017-08-13T05:59:23.583Z,0.31
2017-08-13T06:00:11.514Z,0.31
2017-08-13T06:00:59.625Z,0.31
2017-08-13T06:01:47.779Z,0.31
2017-08-13T06:02:36.803Z,0.32
2017-08-13T06:03:30.894Z,0.31
2017-08-13T06:04:30.819Z,0.32
2017-08-13T06:05:25.890Z,0.32
2017-08-13T06:06:20.896Z,0.33
2017-08-13T06:07:21.005Z,0.34
2017-08-13T06:08:16.027Z,0.35
2017-08-13T06:09:11.137Z,0.36
2017-08-13T06:09:59.125Z,0.36
2017-08-13T06:10:59.191Z,0.36
2017-08-13T06:11:47.233Z,0.36
2017-08-13T06:12:35.306Z,0.36
2017-08-13T06:13:23.423Z,0.36
2017-08-13T06:14:12.463Z,0.37
2017-08-13T06:15:00.530Z,0.37
2017-08-13T06:15:48.552Z,0.38
2017-08-13T06:16:37.555Z,0.38
2017-08-13T06:17:31.583Z,0.38
2017-08-13T06:18:31.646Z,0.38
2017-08-13T06:19:31.775Z,0.39
2017-08-13T06:20:31.806Z,0.39
2017-08-13T06:21:31.765Z,0.39
2017-08-13T06:22:31.887Z,0.40
2017-08-13T06:23:31.834Z,0.40
2017-08-13T06:24:32.936Z,0.41
2017-08-13T06:25:28.117Z,0.41
2017-08-13T06:26:22.022Z,0.41
2017-08-13T06:27:23.092Z,0.41
2017-08-13T06:28:18.190Z,0.42
2017-08-13T06:29:18.256Z,0.43
2017-08-13T06:30:18.124Z,0.43
2017-08-13T06:31:18.265Z,0.43
2017-08-13T06:32:18.417Z,0.44
2017-08-13T06:33:18.357Z,0.45
2017-08-13T06:34:18.558Z,0.45
2017-08-13T06:35:18.574Z,0.45
2017-08-13T06:36:18.579Z,0.45
2017-08-13T06:37:18.704Z,0.45
2017-08-13T06:38:18.664Z,0.44
2017-08-13T06:39:18.736Z,0.45
2017-08-13T06:40:18.770Z,0.45
2017-08-13T06:41:18.769Z,0.45
2017-08-13T06:42:18.835Z,0.45
2017-08-13T06:43:18.930Z,0.46
2017-08-13T06:44:25.024Z,0.47
2017-08-13T06:45:25.091Z,0.47
2017-08-13T06:46:26.148Z,0.48
2017-08-13T06:47:27.166Z,0.49
2017-08-13T06:48:28.274Z,0.49
2017-08-13T06:49:22.161Z,0.49
2017-08-13T06:50:22.294Z,0.48
2017-08-13T06:51:17.197Z,0.48
2017-08-13T06:52:12.448Z,0.49
2017-08-13T06:53:06.418Z,0.50
2017-08-13T06:54:06.597Z,0.50
2017-08-13T06:55:01.560Z,0.51
2017-08-13T06:55:56.612Z,0.52
2017-08-13T06:56:56.610Z,0.52
2017-08-13T06:57:51.666Z,0.52
2017-08-13T06:58:46.864Z,0.52
2017-08-13T06:59:40.892Z,0.51
2017-08-13T07:00:41.995Z,0.51
2017-08-13T07:01:36.964Z,0.51
2017-08-13T07:02:37.010Z,0.51
2017-08-13T07:03:37.109Z,0.51
2017-08-13T07:04:37.137Z,0.50
2017-08-13T07:05:37.173Z,0.50
2017-08-13T07:06:37.174Z,0.50
2017-08-13T07:07:37.263Z,0.50
2017-08-13T07:08:37.296Z,0.51
2017-08-13T07:09:37.307Z,0.52
2017-08-13T07:10:37.307Z,0.52
2017-08-13T07:11:37.491Z,0.52
2017-08-13T07:12:37.520Z,0.52
2017-08-13T07:13:37.552Z,0.51
2017-08-13T07:14:37.606Z,0.51
2017-08-13T07:15:37.694Z,0.51
2017-08-13T07:16:37.684Z,0.52
2017-08-13T07:17:37.761Z,0.54
2017-08-13T07:18:37.739Z,0.54
2017-08-13T07:19:37.897Z,0.55
2017-08-13T07:20:38.026Z,0.56
2017-08-13T07:21:37.997Z,0.56
2017-08-13T07:22:37.994Z,0.56
2017-08-13T07:23:33.096Z,0.56
2017-08-13T07:24:21.172Z,0.56
2017-08-13T07:25:10.301Z,0.57
2017-08-13T07:26:10.314Z,0.58
2017-08-13T07:27:11.333Z,0.58
2017-08-13T07:28:05.425Z,0.58
2017-08-13T07:28:54.412Z,0.58
2017-08-13T07:29:43.533Z,0.59
2017-08-13T07:30:31.503Z,0.59
2017-08-13T07:31:25.602Z,0.59
2017-08-13T07:32:14.662Z,0.61
2017-08-13T07:33:03.873Z,0.61
2017-08-13T07:33:51.813Z,0.62
2017-08-13T07:34:46.949Z,0.63
2017-08-13T07:35:35.970Z,0.64
2017-08-13T07:36:30.955Z,0.64
2017-08-13T07:37:25.028Z,0.63
2017-08-13T07:38:20.094Z,0.64
2017-08-13T07:39:08.445Z,0.64
2017-08-13T07:39:57.222Z,0.63
2017-08-13T07:40:51.333Z,0.64
2017-08-13T07:41:39.297Z,0.65
2017-08-13T07:42:28.440Z,0.64
2017-08-13T07:43:22.434Z,0.62
2017-08-13T07:44:22.546Z,0.61
2017-08-13T07:45:10.669Z,0.61
2017-08-13T07:46:04.738Z,0.59
2017-08-13T07:46:52.730Z,0.58
2017-08-13T07:47:46.758Z,0.61
2017-08-13T07:48:40.819Z,0.64
2017-08-13T07:49:29.942Z,0.68
2017-08-13T07:50:23.961Z,0.70
2017-08-13T07:51:24.003Z,0.70
2017-08-13T07:52:18.117Z,0.69
2017-08-13T07:53:13.115Z,0.67
2017-08-13T07:54:07.242Z,0.67
2017-08-13T07:54:55.373Z,0.68
2017-08-13T07:55:56.223Z,0.67
2017-08-13T07:56:57.381Z,0.66
2017-08-13T07:57:51.843Z,0.66
2017-08-13T07:58:45.431Z,0.66
2017-08-13T07:59:45.494Z,0.65
2017-08-13T08:00:45.588Z,0.66
2017-08-13T08:01:40.792Z,0.68
2017-08-13T08:02:34.722Z,0.69
2017-08-13T08:03:28.878Z,0.70
2017-08-13T08:04:28.820Z,0.71
2017-08-13T08:05:22.910Z,0.72
2017-08-13T08:06:22.924Z,0.72
2017-08-13T08:07:11.082Z,0.72
2017-08-13T08:07:59.099Z,0.72
2017-08-13T08:08:48.122Z,0.72
2017-08-13T08:09:37.249Z,0.74
2017-08-13T08:10:31.230Z,0.74
2017-08-13T08:11:25.220Z,0.74
2017-08-13T08:12:19.411Z,0.73
2017-08-13T08:13:19.435Z,0.72
2017-08-13T08:14:14.663Z,0.71
2017-08-13T08:15:08.592Z,0.70
2017-08-13T08:16:08.681Z,0.69
2017-08-13T08:17:02.625Z,0.68
2017-08-13T08:17:57.866Z,0.58
2017-08-13T08:18:57.757Z,0.70
2017-08-13T08:19:51.965Z,0.67
2017-08-13T08:20:40.852Z,0.69
2017-08-13T08:21:41.069Z,0.70
2017-08-13T08:22:30.134Z,0.73
2017-08-13T08:23:24.238Z,0.72
2017-08-13T08:24:12.256Z,0.67
2017-08-13T08:25:06.391Z,0.23
2017-08-13T08:25:54.317Z,0.23
2017-08-13T08:26:48.361Z,0.31
2017-08-13T08:27:37.465Z,0.68
2017-08-13T08:28:37.548Z,0.68
2017-08-13T08:29:26.489Z,0.71
2017-08-13T08:30:15.726Z,0.72
2017-08-13T08:31:10.665Z,0.74
2017-08-13T08:32:05.791Z,0.74
2017-08-13T08:33:06.789Z,0.74
2017-08-13T08:34:00.921Z,0.75
2017-08-13T08:34:49.989Z,0.76
2017-08-13T08:35:44.984Z,0.74
2017-08-13T08:36:45.015Z,0.74
2017-08-13T08:37:40.046Z,0.74
2017-08-13T08:38:35.161Z,0.73
2017-08-13T08:39:24.314Z,0.73
2017-08-13T08:40:18.256Z,0.74
2017-08-13T08:41:07.370Z,0.74
2017-08-13T08:41:56.470Z,0.74
2017-08-13T08:42:51.472Z,0.72
2017-08-13T08:43:46.478Z,0.72
2017-08-13T08:44:41.568Z,0.74
2017-08-13T08:45:30.691Z,0.76
2017-08-13T08:46:25.814Z,0.77
2017-08-13T08:47:20.760Z,0.79
2017-08-13T08:48:15.887Z,0.81
2017-08-13T08:49:09.958Z,0.81
2017-08-13T08:50:03.996Z,0.80
2017-08-13T08:50:58.003Z,0.79
2017-08-13T08:51:52.085Z,0.80
2017-08-13T08:52:52.172Z,0.80
2017-08-13T08:53:40.266Z,0.77
2017-08-13T08:54:34.259Z,0.77
2017-08-13T08:55:34.380Z,0.76
2017-08-13T08:56:22.344Z,0.78
2017-08-13T08:57:17.525Z,0.76
2017-08-13T08:58:06.585Z,0.78
2017-08-13T08:59:01.618Z,0.80
2017-08-13T08:59:50.692Z,0.81
2017-08-13T09:00:44.735Z,0.82
2017-08-13T09:01:33.823Z,0.82
2017-08-13T09:02:34.813Z,0.83
2017-08-13T09:03:22.937Z,0.82
2017-08-13T09:04:11.981Z,0.79
2017-08-13T09:05:06.040Z,0.56
2017-08-13T09:05:55.050Z,0.76
2017-08-13T09:06:50.228Z,0.78
2017-08-13T09:07:44.236Z,0.79
2017-08-13T09:08:39.262Z,0.79
2017-08-13T09:09:39.330Z,0.79
2017-08-13T09:10:33.417Z,0.78
2017-08-13T09:11:27.404Z,0.77
2017-08-13T09:12:16.481Z,0.78
2017-08-13T09:13:10.605Z,0.78
2017-08-13T09:14:16.554Z,0.78
2017-08-13T09:15:10.725Z,0.79
2017-08-13T09:16:05.709Z,0.80
2017-08-13T09:17:00.812Z,0.80
2017-08-13T09:17:54.969Z,0.80
2017-08-13T09:18:48.909Z,0.78
2017-08-13T09:19:43.988Z,0.76
2017-08-13T09:20:38.074Z,0.75
2017-08-13T09:21:27.128Z,0.73
2017-08-13T09:22:15.180Z,0.74
2017-08-13T09:23:10.193Z,0.75
2017-08-13T09:24:04.321Z,0.77
2017-08-13T09:25:04.371Z,0.79
2017-08-13T09:25:59.369Z,0.81
2017-08-13T09:26:47.468Z,0.83
2017-08-13T09:27:42.598Z,0.83
2017-08-13T09:28:43.534Z,0.83
2017-08-13T09:29:37.684Z,0.84
2017-08-13T09:30:25.752Z,0.83
2017-08-13T09:31:26.802Z,0.84
2017-08-13T09:32:20.780Z,0.84
2017-08-13T09:33:09.885Z,0.84
2017-08-13T09:33:58.973Z,0.86
2017-08-13T09:34:48.059Z,0.86
2017-08-13T09:35:37.075Z,0.84
2017-08-13T09:36:32.163Z,0.83
2017-08-13T09:37:32.241Z,0.84
2017-08-13T09:38:21.211Z,0.84
2017-08-13T09:39:15.457Z,0.88
2017-08-13T09:40:09.370Z,0.57
2017-08-13T09:41:03.415Z,0.32
2017-08-13T09:41:52.515Z,0.91
2017-08-13T09:42:52.653Z,0.93
2017-08-13T09:43:47.772Z,0.95
2017-08-13T09:44:41.832Z,0.93
2017-08-13T09:45:41.881Z,0.91
2017-08-13T09:46:35.885Z,0.89
2017-08-13T09:47:25.026Z,0.86
2017-08-13T09:48:19.948Z,0.88
2017-08-13T09:49:08.992Z,0.88
2017-08-13T09:50:03.119Z,0.88
2017-08-13T09:50:58.244Z,0.91
2017-08-13T09:51:53.224Z,0.57
2017-08-13T09:52:59.319Z,0.33
2017-08-13T09:53:59.276Z,0.94
2017-08-13T09:54:54.329Z,0.95
2017-08-13T09:55:43.482Z,0.91
2017-08-13T09:56:32.574Z,0.94
2017-08-13T09:57:26.632Z,0.95
2017-08-13T09:58:15.635Z,0.93
2017-08-13T09:59:10.933Z,0.91
2017-08-13T10:00:04.791Z,0.93
2017-08-13T10:00:53.897Z,0.90
2017-08-13T10:01:48.952Z,0.90
2017-08-13T10:02:49.091Z,0.90
2017-08-13T10:03:48.981Z,0.92
2017-08-13T10:04:55.134Z,0.94
2017-08-13T10:05:55.142Z,0.94
2017-08-13T10:06:55.177Z,0.95
2017-08-13T10:07:49.276Z,0.96
2017-08-13T10:08:44.290Z,0.97
2017-08-13T10:09:38.386Z,0.96
2017-08-13T10:10:27.565Z,0.94
2017-08-13T10:11:22.512Z,0.96
2017-08-13T10:12:16.635Z,0.92
2017-08-13T10:13:11.575Z,0.95
2017-08-13T10:14:05.757Z,0.95
2017-08-13T10:14:54.848Z,0.97
2017-08-13T10:15:43.796Z,0.99
2017-08-13T10:16:37.903Z,0.97
2017-08-13T10:17:31.943Z,0.43
2017-08-13T10:18:21.066Z,0.34
2017-08-13T10:19:16.103Z,0.31
2017-08-13T10:20:16.143Z,0.31
2017-08-13T10:21:11.239Z,0.31
2017-08-13T10:22:06.191Z,0.30
2017-08-13T10:22:54.341Z,0.30
2017-08-13T10:23:49.495Z,1.00
2017-08-13T10:24:43.554Z,1.00
2017-08-13T10:25:37.578Z,1.00
2017-08-13T10:26:37.549Z,0.98
2017-08-13T10:27:26.484Z,0.98
2017-08-13T10:28:20.696Z,0.97
2017-08-13T10:29:21.097Z,0.97
2017-08-13T10:30:15.906Z,0.40
2017-08-13T10:31:03.951Z,0.48
2017-08-13T10:31:58.915Z,0.34
2017-08-13T10:32:53.991Z,0.34
2017-08-13T10:33:42.136Z,0.36
2017-08-13T10:34:36.193Z,0.88
2017-08-13T10:35:31.228Z,1.07
2017-08-13T10:36:20.219Z,0.88
2017-08-13T10:37:15.280Z,0.38
2017-08-13T10:38:09.358Z,0.33
2017-08-13T10:39:09.510Z,0.22
2017-08-13T10:40:03.484Z,0.17
2017-08-13T10:40:58.039Z,0.15
2017-08-13T10:41:51.636Z,0.13
2017-08-13T10:42:45.624Z,0.12
2017-08-13T10:43:39.639Z,0.11
2017-08-13T10:44:34.779Z,0.11
2017-08-13T10:45:34.755Z,0.13
2017-08-13T10:46:28.919Z,0.15
2017-08-13T10:47:22.951Z,0.17
2017-08-13T10:48:23.076Z,0.19
2017-08-13T10:49:18.168Z,0.19
2017-08-13T10:50:18.278Z,0.19
2017-08-13T10:51:13.252Z,0.18
2017-08-13T10:52:08.245Z,0.16
2017-08-13T10:53:09.327Z,0.15
2017-08-13T10:54:04.446Z,0.13
2017-08-13T10:54:53.484Z,0.12
2017-08-13T10:55:54.517Z,0.11
2017-08-13T10:56:43.577Z,0.10
2017-08-13T10:57:38.615Z,0.11
2017-08-13T10:58:33.701Z,0.12
2017-08-13T10:59:22.844Z,0.14
2017-08-13T11:00:17.939Z,0.16
2017-08-13T11:01:11.862Z,0.17
2017-08-13T11:02:06.023Z,0.21
2017-08-13T11:02:59.922Z,0.23
2017-08-13T11:03:54.971Z,0.26
2017-08-13T11:04:48.955Z,0.28
2017-08-13T11:05:49.033Z,0.30
2017-08-13T11:06:38.197Z,0.30
2017-08-13T11:07:32.236Z,0.31
2017-08-13T11:08:27.353Z,0.32
2017-08-13T11:09:16.223Z,0.33
2017-08-13T11:10:10.330Z,0.34
2017-08-13T11:11:05.385Z,0.33
2017-08-13T11:12:00.409Z,0.32
2017-08-13T11:12:54.463Z,0.32
2017-08-13T11:13:54.835Z,0.31
2017-08-13T11:14:42.509Z,0.31
2017-08-13T11:15:37.648Z,0.31
2017-08-13T11:16:25.657Z,0.31
2017-08-13T11:17:13.716Z,0.31
2017-08-13T11:18:13.780Z,0.30
2017-08-13T11:19:07.898Z,0.31
2017-08-13T11:20:01.984Z,0.33
2017-08-13T11:20:50.867Z,0.35
2017-08-13T11:21:45.079Z,0.40
2017-08-13T11:22:39.145Z,0.49
2017-08-13T11:23:28.195Z,0.65
2017-08-13T11:24:22.148Z,0.56
2017-08-13T11:25:10.284Z,0.63
2017-08-13T11:26:04.337Z,0.57
2017-08-13T11:26:58.374Z,0.58
2017-08-13T11:27:52.415Z,0.33
2017-08-13T11:28:53.462Z,0.34
2017-08-13T11:29:54.482Z,0.68
2017-08-13T11:30:42.596Z,0.30
2017-08-13T11:31:31.516Z,0.24
2017-08-13T11:32:25.665Z,0.23
2017-08-13T11:33:19.833Z,0.23
2017-08-13T11:34:14.056Z,0.75
2017-08-13T11:35:02.863Z,0.71
2017-08-13T11:35:56.933Z,0.38
2017-08-13T11:36:44.963Z,1.00
2017-08-13T11:37:39.059Z,1.01
2017-08-13T11:38:33.106Z,0.95
2017-08-13T11:39:27.172Z,1.02
2017-08-13T11:40:16.285Z,0.47
2017-08-13T11:41:10.195Z,0.67
2017-08-13T11:41:59.385Z,0.47
2017-08-13T11:43:05.350Z,0.81
2017-08-13T11:43:53.463Z,0.52
2017-08-13T11:44:48.455Z,0.46
2017-08-13T11:45:42.477Z,0.42
2017-08-13T11:46:30.641Z,0.52
2017-08-13T11:47:24.731Z,0.60
2017-08-13T11:48:13.735Z,1.03
2017-08-13T11:49:02.697Z,0.99
2017-08-13T11:49:57.730Z,0.49
2017-08-13T11:50:45.895Z,0.49
2017-08-13T11:51:40.008Z,0.47
2017-08-13T11:52:28.995Z,0.44
2017-08-13T11:53:23.096Z,0.43
2017-08-13T11:54:23.209Z,0.44
2017-08-13T11:55:17.277Z,0.44
2017-08-13T11:56:12.193Z,0.38
2017-08-13T11:57:01.234Z,0.90
2017-08-13T11:57:55.345Z,0.87
2017-08-13T11:58:50.385Z,0.87
2017-08-13T11:59:45.603Z,0.53
2017-08-13T12:00:39.549Z,0.49
2017-08-13T12:01:34.533Z,0.75
2017-08-13T12:02:34.575Z,0.47
2017-08-13T12:03:28.673Z,0.78
2017-08-13T12:04:17.705Z,0.48
2017-08-13T12:05:11.682Z,0.91
2017-08-13T12:06:05.801Z,0.89
2017-08-13T12:06:59.924Z,0.86
2017-08-13T12:07:49.009Z,0.82
2017-08-13T12:08:43.008Z,0.82
2017-08-13T12:09:31.030Z,0.83
2017-08-13T12:10:31.215Z,0.84
2017-08-13T12:11:19.147Z,0.28
2017-08-13T12:12:13.158Z,0.83
2017-08-13T12:13:08.346Z,0.81
2017-08-13T12:13:57.444Z,0.80
2017-08-13T12:14:52.456Z,0.80